Promitheas — SYIJ — position and weather

sailwx.info

Track history (hours):
 
Tides and Currents Weather Stations Pressure Air Temp Water Temp Dewpoint Dewpoint Depression Visibility Wind Speed Wind Dir Waves Ship Positions

Promitheas

Last reported at 2014-Dec-03 05:33 UTC. Time now 2014-Dec-21 05:29 UTC.
Position N 31°08' E 029°36'.
Warning: this ship's position is 17 days out of date.

Length 249 m; draft 8.2 m.

Type: Tanker. MMSI: 240547000.

Date/timePositionNaut miles runAvg speedWind from/ knotsBaromVisibWave heightAir tempDewpointWater temp
2014-Dec-03 05:33N 31°08' E 029°36'20 5.8
2014-Dec-03 02:11N 31°16' E 029°15'710.8
2014-Dec-03 01:33N 31°18' E 029°08'3511.0
2014-Dec-02 22:24N 31°31' E 028°30'3310.7
2014-Dec-02 19:22N 31°43' E 027°54'3411.3
2014-Dec-02 16:23N 31°55' E 027°17'2311.0
2014-Dec-02 14:18N 32°04' E 026°53'810.8
2014-Dec-02 13:33N 32°06' E 026°44'41411.2
2014-Dec-01 00:29N 34°38' E 019°03'19412.0
2014-Nov-30 08:21N 35°49' E 015°22'1012.0
2014-Nov-30 07:33N 35°53' E 015°11'1212.2
2014-Nov-30 06:33N 35°58' E 014°58'1211.8
2014-Nov-30 05:33N 36°02' E 014°44'1211.9
2014-Nov-30 04:33N 36°02' E 014°29'5 4.7
2014-Nov-30 03:33N 36°02' E 014°23'0 0.0
2014-Nov-30 02:33N 36°02' E 014°23'0 0.1
2014-Nov-30 01:33N 36°02' E 014°23'0 0.0
2014-Nov-30 00:33N 36°02' E 014°23'0 0.1
2014-Nov-29 23:33N 36°02' E 014°23'0 0.1
2014-Nov-29 22:33N 36°02' E 014°23'0 0.0
2014-Nov-29 21:33N 36°02' E 014°23'0 0.0
2014-Nov-29 20:15N 36°02' E 014°23'1 1.7
2014-Nov-29 19:33N 36°02' E 014°24'7 7.1
2014-Nov-29 18:33N 35°59' E 014°32'3 3.3
2014-Nov-29 17:33N 36°01' E 014°29'8 8.1
2014-Nov-29 16:31N 36°08' E 014°23'12 8.1
2014-Nov-29 15:04N 36°17' E 014°14'2011.9
2014-Nov-29 13:22N 36°25' E 013°51'911.6
2014-Nov-29 12:33N 36°28' E 013°40'1111.4
2014-Nov-29 11:33N 36°32' E 013°27'1111.4
2014-Nov-29 10:33N 36°36' E 013°14'1111.3
2014-Nov-29 09:33N 36°41' E 013°00'1111.3
2014-Nov-29 08:33N 36°45' E 012°48'1111.4
2014-Nov-29 07:33N 36°49' E 012°34'40111.8
2014-Nov-27 21:32N 37°13' E 004°13'1412.6
2014-Nov-27 20:25N 37°12' E 003°56'44712.5
2014-Nov-26 08:34N 36°00' W 005°14'  
Track history (hours):
 
Tides and Currents Weather Stations Pressure Air Temp Water Temp Dewpoint Dewpoint Depression Visibility Wind Speed Wind Dir Waves Ship Positions

Promitheas

Last reported at 2014-Dec-03 05:33 UTC. Time now 2014-Dec-21 05:29 UTC.
Position N 31°08' E 029°36'.
Warning: this ship's position is 17 days out of date.

Length 249 m; draft 8.2 m.

Type: Tanker. MMSI: 240547000.

Date/timePositionNaut miles runAvg speedWind from/ knotsBaromVisibWave heightAir tempDewpointWater temp
2014-Dec-03 05:33N 31°08' E 029°36'20 5.8
2014-Dec-03 02:11N 31°16' E 029°15'710.8
2014-Dec-03 01:33N 31°18' E 029°08'3511.0
2014-Dec-02 22:24N 31°31' E 028°30'3310.7
2014-Dec-02 19:22N 31°43' E 027°54'3411.3
2014-Dec-02 16:23N 31°55' E 027°17'2311.0
2014-Dec-02 14:18N 32°04' E 026°53'810.8
2014-Dec-02 13:33N 32°06' E 026°44'41411.2
2014-Dec-01 00:29N 34°38' E 019°03'19412.0
2014-Nov-30 08:21N 35°49' E 015°22'1012.0
2014-Nov-30 07:33N 35°53' E 015°11'1212.2
2014-Nov-30 06:33N 35°58' E 014°58'1211.8
2014-Nov-30 05:33N 36°02' E 014°44'1211.9
2014-Nov-30 04:33N 36°02' E 014°29'5 4.7
2014-Nov-30 03:33N 36°02' E 014°23'0 0.0
2014-Nov-30 02:33N 36°02' E 014°23'0 0.1
2014-Nov-30 01:33N 36°02' E 014°23'0 0.0
2014-Nov-30 00:33N 36°02' E 014°23'0 0.1
2014-Nov-29 23:33N 36°02' E 014°23'0 0.1
2014-Nov-29 22:33N 36°02' E 014°23'0 0.0
2014-Nov-29 21:33N 36°02' E 014°23'0 0.0
2014-Nov-29 20:15N 36°02' E 014°23'1 1.7
2014-Nov-29 19:33N 36°02' E 014°24'7 7.1
2014-Nov-29 18:33N 35°59' E 014°32'3 3.3
2014-Nov-29 17:33N 36°01' E 014°29'8 8.1
2014-Nov-29 16:31N 36°08' E 014°23'12 8.1
2014-Nov-29 15:04N 36°17' E 014°14'2011.9
2014-Nov-29 13:22N 36°25' E 013°51'911.6
2014-Nov-29 12:33N 36°28' E 013°40'1111.4
2014-Nov-29 11:33N 36°32' E 013°27'1111.4
2014-Nov-29 10:33N 36°36' E 013°14'1111.3
2014-Nov-29 09:33N 36°41' E 013°00'1111.3
2014-Nov-29 08:33N 36°45' E 012°48'1111.4
2014-Nov-29 07:33N 36°49' E 012°34'40111.8
2014-Nov-27 21:32N 37°13' E 004°13'1412.6
2014-Nov-27 20:25N 37°12' E 003°56'44712.5
2014-Nov-26 08:34N 36°00' W 005°14'  

Dump ship's entire track history